createdAt,value
2019-04-06T00:01:27.647Z,26.17
2019-04-06T00:03:58.303Z,24.13
2019-04-06T00:06:28.947Z,22.10
2019-04-06T00:08:59.603Z,24.67
2019-04-06T00:11:30.844Z,21.67
2019-04-06T00:14:01.556Z,24.23
2019-04-06T00:16:32.219Z,28.20
2019-04-06T00:19:03.101Z,26.47
2019-04-06T00:21:33.774Z,23.87
2019-04-06T00:24:04.493Z,23.37
2019-04-06T00:26:53.672Z,24.27
2019-04-06T00:29:24.383Z,19.07
2019-04-06T00:31:56.763Z,22.90
2019-04-06T00:34:27.569Z,24.80
2019-04-06T00:36:58.242Z,21.73
2019-04-06T00:39:29.009Z,23.50
2019-04-06T00:41:59.807Z,22.00
2019-04-06T00:44:30.619Z,25.33
2019-04-06T00:47:01.245Z,25.90
2019-04-06T00:49:31.902Z,23.57
2019-04-06T00:52:02.545Z,24.73
2019-04-06T00:54:33.187Z,24.27
2019-04-06T00:57:03.915Z,26.40
2019-04-06T00:59:34.717Z,29.53
2019-04-06T01:02:06.066Z,26.63
2019-04-06T01:04:36.707Z,25.00
2019-04-06T01:07:07.467Z,28.73
2019-04-06T01:09:38.175Z,31.80
2019-04-06T01:12:11.658Z,36.37
2019-04-06T01:14:42.307Z,33.63
2019-04-06T01:17:13.032Z,33.67
2019-04-06T01:19:43.939Z,38.70
2019-04-06T01:22:14.780Z,31.83
2019-04-06T01:24:45.454Z,32.60
2019-04-06T01:27:16.028Z,28.10
2019-04-06T01:29:46.738Z,29.37
2019-04-06T01:32:17.362Z,31.13
2019-04-06T01:34:48.072Z,33.77
2019-04-06T01:37:18.835Z,28.40
2019-04-06T01:39:49.543Z,27.53
2019-04-06T01:42:20.417Z,27.53
2019-04-06T01:44:51.163Z,28.37
2019-04-06T01:47:21.853Z,36.30
2019-04-06T01:49:52.476Z,31.90
2019-04-06T01:52:23.438Z,30.10
2019-04-06T01:54:54.345Z,30.37
2019-04-06T01:57:25.041Z,32.43
2019-04-06T01:59:55.728Z,44.63
2019-04-06T02:02:30.904Z,57.13
2019-04-06T02:05:01.509Z,50.77
2019-04-06T02:07:32.224Z,58.53
2019-04-06T02:10:03.028Z,57.77
2019-04-06T02:12:34.159Z,60.63
2019-04-06T02:15:06.881Z,62.77
2019-04-06T02:17:37.548Z,71.27
2019-04-06T02:20:09.221Z,60.50
2019-04-06T02:22:41.093Z,63.93
2019-04-06T02:25:12.231Z,62.93
2019-04-06T02:27:43.182Z,61.47
2019-04-06T02:30:21.855Z,59.50
2019-04-06T02:33:13.895Z,73.03
2019-04-06T02:36:00.949Z,71.87
2019-04-06T02:38:36.563Z,75.80
2019-04-06T02:41:11.829Z,64.97
2019-04-06T02:43:42.977Z,87.10
2019-04-06T02:46:13.702Z,80.03
2019-04-06T02:48:44.908Z,81.90
2019-04-06T02:51:15.807Z,90.50
2019-04-06T02:53:46.830Z,92.67
2019-04-06T02:56:17.971Z,113.23
2019-04-06T02:58:49.115Z,104.97
2019-04-06T03:01:20.059Z,100.27
2019-04-06T03:03:51.193Z,93.53
2019-04-06T03:06:22.270Z,83.93
2019-04-06T03:08:53.282Z,84.00
2019-04-06T03:11:24.319Z,93.17
2019-04-06T03:13:55.562Z,85.47
2019-04-06T03:16:26.514Z,76.83
2019-04-06T03:18:57.603Z,76.57
2019-04-06T03:21:28.649Z,68.30
2019-04-06T03:23:59.733Z,65.47
2019-04-06T03:26:31.024Z,54.50
2019-04-06T03:29:02.405Z,53.37
2019-04-06T03:31:33.604Z,56.27
2019-04-06T03:34:04.729Z,57.97
2019-04-06T03:36:35.747Z,60.57
2019-04-06T03:39:08.310Z,52.27
2019-04-06T03:41:39.500Z,44.87
2019-04-06T03:44:10.614Z,39.90
2019-04-06T03:46:43.601Z,38.90
2019-04-06T03:49:14.742Z,39.53
2019-04-06T03:51:45.687Z,42.07
2019-04-06T03:54:16.563Z,44.63
2019-04-06T03:56:47.440Z,38.10
2019-04-06T03:59:18.818Z,33.20
2019-04-06T04:01:49.852Z,40.70
2019-04-06T04:04:21.040Z,33.50
2019-04-06T04:06:52.234Z,28.40
2019-04-06T04:09:23.268Z,32.57
2019-04-06T04:11:54.116Z,33.43
2019-04-06T04:14:25.254Z,29.07
2019-04-06T04:16:56.288Z,32.57
2019-04-06T04:19:27.232Z,30.83
2019-04-06T04:21:58.269Z,24.23
2019-04-06T04:24:29.411Z,32.03
2019-04-06T04:27:00.669Z,26.13
2019-04-06T04:29:31.526Z,29.90
2019-04-06T04:32:02.606Z,26.50
2019-04-06T04:34:33.689Z,23.47
2019-04-06T04:37:04.721Z,28.93
2019-04-06T04:39:35.762Z,29.77
2019-04-06T04:42:06.720Z,26.03
2019-04-06T04:44:37.666Z,24.23
2019-04-06T04:47:08.683Z,25.97
2019-04-06T04:49:39.818Z,28.30
2019-04-06T04:52:10.860Z,30.77
2019-04-06T04:54:41.808Z,25.00
2019-04-06T04:57:12.711Z,28.43
2019-04-06T04:59:43.701Z,25.47
2019-04-06T05:02:14.720Z,27.90
2019-04-06T05:04:45.657Z,31.10
2019-04-06T05:07:17.919Z,34.33
2019-04-06T05:09:48.704Z,40.93
2019-04-06T05:12:19.329Z,38.43
2019-04-06T05:15:01.794Z,39.13
2019-04-06T05:17:32.704Z,40.97
2019-04-06T05:20:04.791Z,42.60
2019-04-06T05:22:35.440Z,61.07
2019-04-06T05:25:07.768Z,50.60
2019-04-06T05:27:38.434Z,45.10
2019-04-06T05:30:09.889Z,47.10
2019-04-06T05:32:40.629Z,41.27
2019-04-06T05:35:11.975Z,50.30
2019-04-06T05:37:42.614Z,53.63
2019-04-06T05:40:17.127Z,49.03
2019-04-06T05:42:48.104Z,47.13
2019-04-06T05:45:19.426Z,43.33
2019-04-06T05:47:50.083Z,45.67
2019-04-06T05:50:20.860Z,39.47
2019-04-06T05:52:51.725Z,39.47
2019-04-06T05:55:24.478Z,36.60
2019-04-06T05:58:03.454Z,34.50
2019-04-06T06:00:27.983Z,41.73
2019-04-06T06:02:58.595Z,33.90
2019-04-06T06:05:29.689Z,35.43
2019-04-06T06:08:00.675Z,34.97
2019-04-06T06:10:31.444Z,31.37
2019-04-06T06:13:02.127Z,26.07
2019-04-06T06:15:32.857Z,24.50
2019-04-06T06:18:05.172Z,30.33
2019-04-06T06:20:35.908Z,28.07
2019-04-06T06:23:06.661Z,27.97
2019-04-06T06:25:37.601Z,28.87
2019-04-06T06:28:14.227Z,28.77
2019-04-06T06:30:40.645Z,23.63
2019-04-06T06:33:11.873Z,26.87
2019-04-06T06:35:42.524Z,26.50
2019-04-06T06:38:13.596Z,30.37
2019-04-06T06:40:44.473Z,33.00
2019-04-06T06:43:15.297Z,28.60
2019-04-06T06:45:46.029Z,29.30
2019-04-06T06:48:17.019Z,26.67
2019-04-06T06:50:47.796Z,34.07
2019-04-06T06:53:18.759Z,23.30
2019-04-06T06:55:49.377Z,30.20
2019-04-06T06:58:25.107Z,38.50
2019-04-06T07:00:52.406Z,25.73
2019-04-06T07:03:23.054Z,28.30
2019-04-06T07:05:53.733Z,30.30
2019-04-06T07:08:24.779Z,30.53
2019-04-06T07:10:55.816Z,29.87
2019-04-06T07:13:26.501Z,38.70
2019-04-06T07:15:57.505Z,29.97
2019-04-06T07:18:28.167Z,32.03
2019-04-06T07:20:58.989Z,23.27
2019-04-06T07:23:29.992Z,26.83
2019-04-06T07:26:04.020Z,17.23
2019-04-06T07:28:38.431Z,21.17
2019-04-06T07:31:07.918Z,46.30
2019-04-06T07:33:38.975Z,30.07
2019-04-06T07:36:09.938Z,20.67
2019-04-06T07:38:40.612Z,21.43
2019-04-06T07:41:11.207Z,23.33
2019-04-06T07:43:42.236Z,26.47
2019-04-06T07:46:12.920Z,24.97
2019-04-06T07:48:43.638Z,23.83
2019-04-06T07:51:14.362Z,22.07
2019-04-06T07:53:45.182Z,23.30
2019-04-06T07:56:16.395Z,14.20
2019-04-06T07:58:49.876Z,23.97
2019-04-06T08:01:20.319Z,15.87
2019-04-06T08:03:52.886Z,20.20
2019-04-06T08:06:23.727Z,22.27
2019-04-06T08:08:54.485Z,18.60
2019-04-06T08:11:25.525Z,21.07
2019-04-06T08:13:56.752Z,18.97
2019-04-06T08:16:28.165Z,17.50
2019-04-06T08:19:01.936Z,19.50
2019-04-06T08:21:33.051Z,23.47
2019-04-06T08:24:04.416Z,20.97
2019-04-06T08:26:35.102Z,24.27
2019-04-06T08:29:06.574Z,23.50
2019-04-06T08:31:37.639Z,24.00
2019-04-06T08:34:08.354Z,24.50
2019-04-06T08:36:39.182Z,22.23
2019-04-06T08:39:10.368Z,27.93
2019-04-06T08:41:41.124Z,24.07
2019-04-06T08:44:11.849Z,30.80
2019-04-06T08:46:43.659Z,22.57
2019-04-06T08:49:14.535Z,22.63
2019-04-06T08:51:45.389Z,21.43
2019-04-06T08:54:16.004Z,19.57
2019-04-06T08:56:46.738Z,28.13
2019-04-06T08:59:17.840Z,26.73
2019-04-06T09:01:48.799Z,28.30
2019-04-06T09:04:19.453Z,24.50
2019-04-06T09:06:50.634Z,25.23
2019-04-06T09:09:21.337Z,26.20
2019-04-06T09:11:52.084Z,20.83
2019-04-06T09:14:23.211Z,20.57
2019-04-06T09:16:53.959Z,27.83
2019-04-06T09:19:24.601Z,21.13
2019-04-06T09:21:55.349Z,21.13
2019-04-06T09:24:26.219Z,24.47
2019-04-06T09:26:56.894Z,19.60
2019-04-06T09:29:27.525Z,21.90
2019-04-06T09:31:58.243Z,20.63
2019-04-06T09:34:31.000Z,15.67
2019-04-06T09:37:01.351Z,22.13
2019-04-06T09:39:32.027Z,21.03
2019-04-06T09:42:02.729Z,17.30
2019-04-06T09:44:40.661Z,16.47
2019-04-06T09:47:15.917Z,21.13
2019-04-06T09:49:48.171Z,25.90
2019-04-06T09:52:23.112Z,20.03
2019-04-06T09:55:04.159Z,19.73
2019-04-06T09:57:52.651Z,21.77
2019-04-06T10:00:30.501Z,30.50
2019-04-06T10:03:15.257Z,27.77
2019-04-06T10:05:53.944Z,20.77
2019-04-06T10:08:42.750Z,18.13
2019-04-06T10:11:31.840Z,20.63
2019-04-06T10:14:07.204Z,21.03
2019-04-06T10:16:45.288Z,21.87
2019-04-06T10:19:20.431Z,22.53
2019-04-06T10:21:52.691Z,19.30
2019-04-06T10:24:27.840Z,23.67
2019-04-06T10:27:12.185Z,21.30
2019-04-06T10:29:50.102Z,22.27
2019-04-06T10:32:40.731Z,19.77
2019-04-06T10:35:28.277Z,21.47
2019-04-06T10:38:03.268Z,19.00
2019-04-06T10:40:35.475Z,23.57
2019-04-06T10:43:07.774Z,24.90
2019-04-06T10:45:39.989Z,21.30
2019-04-06T10:48:12.224Z,21.87
2019-04-06T10:51:01.135Z,20.83
2019-04-06T10:53:48.567Z,22.97
2019-04-06T10:56:26.978Z,21.47
2019-04-06T10:59:03.419Z,24.67
2019-04-06T11:01:45.197Z,28.63
2019-04-06T11:04:20.534Z,23.13
2019-04-06T11:07:08.946Z,24.07
2019-04-06T11:09:41.252Z,23.73
2019-04-06T11:12:28.645Z,24.20
2019-04-06T11:15:09.879Z,21.03
2019-04-06T11:17:45.304Z,20.83
2019-04-06T11:20:26.822Z,20.83
2019-04-06T11:23:14.178Z,20.17
2019-04-06T11:25:46.397Z,26.03
2019-04-06T11:28:24.910Z,23.47
2019-04-06T11:31:03.709Z,25.13
2019-04-06T11:33:36.397Z,20.77
2019-04-06T11:36:15.203Z,25.57
2019-04-06T11:38:53.836Z,20.50
2019-04-06T11:41:26.399Z,24.13
2019-04-06T11:43:59.337Z,23.13
2019-04-06T11:46:32.330Z,23.63
2019-04-06T11:49:21.303Z,22.07
2019-04-06T11:51:53.909Z,30.23
2019-04-06T11:54:41.931Z,21.17
2019-04-06T11:57:31.314Z,21.90
2019-04-06T12:00:26.053Z,23.00
2019-04-06T12:03:05.974Z,24.87
2019-04-06T12:05:54.330Z,24.37
2019-04-06T12:08:29.760Z,18.60
2019-04-06T12:11:05.148Z,21.50
2019-04-06T12:13:52.506Z,21.27
2019-04-06T12:16:27.845Z,22.77
2019-04-06T12:19:02.883Z,23.10
2019-04-06T12:21:40.925Z,17.47
2019-04-06T12:24:13.561Z,18.03
2019-04-06T12:26:45.827Z,19.37
2019-04-06T12:29:18.167Z,21.93
2019-04-06T12:32:06.898Z,21.00
2019-04-06T12:34:54.452Z,18.23
2019-04-06T12:37:26.771Z,19.83
2019-04-06T12:40:10.952Z,20.47
2019-04-06T12:43:01.221Z,22.50
2019-04-06T12:45:42.738Z,21.43
2019-04-06T12:48:31.726Z,23.23
2019-04-06T12:51:09.756Z,16.53
2019-04-06T12:53:54.312Z,17.70
2019-04-06T12:56:26.694Z,14.17
2019-04-06T12:59:07.818Z,24.77
2019-04-06T13:01:52.348Z,19.83
2019-04-06T13:04:30.717Z,23.50
2019-04-06T13:07:12.095Z,19.07
2019-04-06T13:09:59.927Z,15.83
2019-04-06T13:12:35.061Z,20.97
2019-04-06T13:15:14.559Z,20.67
2019-04-06T13:17:49.619Z,18.40
2019-04-06T13:20:24.818Z,20.63
2019-04-06T13:23:11.928Z,21.90
2019-04-06T13:25:56.195Z,17.80
2019-04-06T13:28:44.836Z,21.17
2019-04-06T13:31:22.968Z,19.47
2019-04-06T13:34:04.287Z,18.50
2019-04-06T13:36:39.366Z,18.40
2019-04-06T13:39:14.572Z,16.13
2019-04-06T13:41:52.546Z,17.93
2019-04-06T13:44:24.868Z,20.60
2019-04-06T13:47:00.066Z,21.20
2019-04-06T13:49:48.669Z,21.47
2019-04-06T13:52:33.058Z,20.20
2019-04-06T13:55:11.436Z,23.07
2019-04-06T13:57:43.780Z,20.57
2019-04-06T14:00:19.330Z,19.93
2019-04-06T14:02:57.106Z,25.27
2019-04-06T14:05:29.297Z,21.23
2019-04-06T14:08:01.595Z,21.73
2019-04-06T14:10:36.702Z,24.30
2019-04-06T14:13:18.062Z,30.30
2019-04-06T14:15:50.352Z,24.60
2019-04-06T14:18:29.248Z,50.53
2019-04-06T14:21:01.418Z,52.53
2019-04-06T14:23:49.905Z,42.70
2019-04-06T14:26:34.505Z,29.67
2019-04-06T14:29:11.203Z,24.20
2019-04-06T14:31:52.277Z,26.90
2019-04-06T14:34:37.221Z,22.57
2019-04-06T14:37:18.476Z,19.07
2019-04-06T14:39:59.560Z,18.50
2019-04-06T14:42:37.647Z,18.10
2019-04-06T14:45:16.158Z,21.27
2019-04-06T14:47:57.503Z,16.67
2019-04-06T14:50:33.022Z,15.50
2019-04-06T14:53:05.589Z,18.13
2019-04-06T14:55:54.549Z,21.70
2019-04-06T14:58:43.582Z,25.63
2019-04-06T15:01:18.721Z,18.53
2019-04-06T15:03:51.172Z,19.53
2019-04-06T15:06:32.578Z,21.67
2019-04-06T15:09:07.581Z,20.60
2019-04-06T15:11:42.758Z,22.20
2019-04-06T15:14:17.965Z,17.43
2019-04-06T15:17:02.425Z,27.10
2019-04-06T15:19:34.680Z,26.67
2019-04-06T15:22:09.702Z,28.07
2019-04-06T15:24:57.750Z,22.53
2019-04-06T15:27:46.322Z,21.43
2019-04-06T15:30:22.505Z,25.17
2019-04-06T15:32:54.777Z,27.17
2019-04-06T15:35:43.790Z,32.63
2019-04-06T15:38:19.247Z,27.83
2019-04-06T15:40:59.553Z,22.97
2019-04-06T15:43:50.422Z,26.37
2019-04-06T15:46:39.305Z,19.67
2019-04-06T15:49:23.489Z,24.33
2019-04-06T15:52:10.161Z,26.37
2019-04-06T15:54:41.458Z,34.57
2019-04-06T15:57:13.766Z,23.63
2019-04-06T16:00:01.358Z,24.57
2019-04-06T16:02:49.791Z,37.57
2019-04-06T16:05:40.249Z,30.30
2019-04-06T16:08:12.501Z,33.80
2019-04-06T16:10:47.502Z,31.57
2019-04-06T16:13:36.191Z,30.93
2019-04-06T16:16:14.708Z,29.90
2019-04-06T16:18:49.712Z,30.80
2019-04-06T16:21:22.076Z,34.00
2019-04-06T16:24:10.609Z,33.13
2019-04-06T16:26:42.838Z,41.30
2019-04-06T16:29:31.496Z,32.10
2019-04-06T16:32:13.532Z,34.57
2019-04-06T16:35:01.417Z,36.23
2019-04-06T16:37:46.001Z,34.47
2019-04-06T16:40:34.970Z,30.13
2019-04-06T16:43:13.797Z,40.30
2019-04-06T16:45:46.012Z,29.93
2019-04-06T16:48:20.992Z,31.47
2019-04-06T16:50:56.618Z,29.67
2019-04-06T16:53:35.239Z,35.73
2019-04-06T16:56:07.498Z,34.57
2019-04-06T16:58:55.268Z,34.53
2019-04-06T17:01:30.613Z,37.90
2019-04-06T17:04:03.061Z,38.73
2019-04-06T17:06:51.589Z,36.70
2019-04-06T17:09:23.783Z,34.90
2019-04-06T17:12:05.105Z,51.50
2019-04-06T17:14:38.160Z,38.37
2019-04-06T17:17:27.293Z,36.13
2019-04-06T17:20:02.328Z,40.77
2019-04-06T17:22:34.700Z,35.87
2019-04-06T17:25:16.830Z,35.10
2019-04-06T17:28:05.557Z,35.30
2019-04-06T17:30:46.855Z,31.43
2019-04-06T17:33:21.762Z,33.40
2019-04-06T17:35:57.098Z,32.53
2019-04-06T17:38:29.458Z,25.23
2019-04-06T17:41:01.804Z,43.73
2019-04-06T17:43:40.352Z,31.97
2019-04-06T17:46:12.894Z,36.70
2019-04-06T17:48:54.598Z,31.17
2019-04-06T17:51:36.163Z,34.47
2019-04-06T17:54:12.878Z,29.47
2019-04-06T17:56:45.393Z,30.83
2019-04-06T17:59:33.877Z,34.73
2019-04-06T18:02:06.510Z,29.37
2019-04-06T18:04:41.867Z,32.57
2019-04-06T18:07:27.571Z,37.83
2019-04-06T18:10:15.904Z,32.57
2019-04-06T18:12:54.229Z,32.70
2019-04-06T18:15:25.001Z,29.00
2019-04-06T18:17:56.106Z,35.33
2019-04-06T18:20:26.924Z,34.30
2019-04-06T18:22:58.066Z,27.90
2019-04-06T18:25:28.853Z,32.40
2019-04-06T18:27:59.488Z,31.73
2019-04-06T18:30:30.532Z,38.53
2019-04-06T18:33:03.780Z,35.40
2019-04-06T18:35:34.644Z,31.73
2019-04-06T18:38:10.062Z,27.53
2019-04-06T18:40:40.769Z,25.63
2019-04-06T18:43:11.475Z,29.07
2019-04-06T18:45:42.131Z,31.97
2019-04-06T18:48:13.289Z,26.23
2019-04-06T18:50:44.107Z,38.57
2019-04-06T18:53:14.698Z,23.30
2019-04-06T18:55:45.311Z,31.93
2019-04-06T18:58:15.977Z,29.77
2019-04-06T19:00:46.738Z,26.77
2019-04-06T19:03:17.568Z,31.93
2019-04-06T19:05:50.038Z,29.33
2019-04-06T19:08:20.860Z,30.87
2019-04-06T19:10:51.588Z,27.80
2019-04-06T19:13:23.282Z,36.20
2019-04-06T19:15:54.577Z,27.87
2019-04-06T19:18:25.402Z,28.37
2019-04-06T19:20:56.506Z,38.60
2019-04-06T19:23:28.736Z,28.43
2019-04-06T19:25:59.452Z,34.70
2019-04-06T19:28:31.693Z,26.53
2019-04-06T19:31:02.558Z,26.27
2019-04-06T19:33:33.285Z,32.40
2019-04-06T19:36:04.374Z,34.27
2019-04-06T19:38:35.050Z,32.10
2019-04-06T19:41:06.303Z,27.67
2019-04-06T19:43:36.944Z,29.90
2019-04-06T19:46:07.665Z,30.47
2019-04-06T19:48:40.514Z,27.27
2019-04-06T19:51:10.631Z,26.90
2019-04-06T19:53:41.419Z,40.67
2019-04-06T19:56:12.100Z,28.43
2019-04-06T19:58:42.773Z,27.93
2019-04-06T20:01:13.679Z,29.30
2019-04-06T20:03:44.586Z,24.93
2019-04-06T20:06:15.558Z,33.90
2019-04-06T20:08:46.418Z,31.47
2019-04-06T20:11:17.682Z,31.40
2019-04-06T20:13:48.657Z,31.70
2019-04-06T20:16:20.603Z,26.70
2019-04-06T20:18:51.211Z,35.40
2019-04-06T20:21:21.936Z,36.93
2019-04-06T20:23:52.519Z,32.63
2019-04-06T20:26:23.195Z,34.33
2019-04-06T20:28:53.841Z,38.53
2019-04-06T20:31:24.479Z,32.40
2019-04-06T20:33:55.213Z,37.83
2019-04-06T20:36:26.228Z,31.93
2019-04-06T20:38:57.245Z,44.13
2019-04-06T20:41:27.997Z,38.73
2019-04-06T20:43:58.587Z,38.57
2019-04-06T20:46:32.229Z,32.97
2019-04-06T20:49:02.864Z,35.50
2019-04-06T20:51:33.519Z,33.17
2019-04-06T20:54:04.346Z,38.43
2019-04-06T20:56:35.082Z,42.33
2019-04-06T20:59:05.674Z,38.20
2019-04-06T21:01:36.365Z,34.17
2019-04-06T21:04:07.083Z,33.53
2019-04-06T21:06:37.717Z,44.70
2019-04-06T21:09:10.174Z,37.47
2019-04-06T21:11:41.415Z,39.90
2019-04-06T21:14:12.872Z,35.10
2019-04-06T21:16:43.615Z,32.53
2019-04-06T21:19:14.647Z,39.43
2019-04-06T21:21:45.427Z,35.47
2019-04-06T21:24:16.128Z,40.03
2019-04-06T21:26:46.868Z,38.67
2019-04-06T21:29:19.110Z,35.17
2019-04-06T21:31:51.882Z,38.03
2019-04-06T21:34:22.642Z,40.07
2019-04-06T21:36:53.719Z,37.20
2019-04-06T21:39:24.522Z,35.47
2019-04-06T21:41:55.318Z,39.37
2019-04-06T21:44:26.494Z,44.20
2019-04-06T21:46:59.039Z,43.47
2019-04-06T21:49:29.771Z,42.13
2019-04-06T21:52:02.256Z,40.20
2019-04-06T21:54:32.992Z,39.00
2019-04-06T21:57:03.855Z,40.83
2019-04-06T21:59:34.585Z,37.20
2019-04-06T22:02:07.097Z,40.83
2019-04-06T22:04:37.736Z,37.17
2019-04-06T22:07:08.757Z,37.17
2019-04-06T22:09:39.522Z,39.73
2019-04-06T22:12:10.632Z,42.13
2019-04-06T22:14:41.327Z,41.10
2019-04-06T22:17:12.097Z,37.80
2019-04-06T22:19:42.799Z,40.43
2019-04-06T22:22:13.357Z,41.20
2019-04-06T22:24:44.082Z,39.60
2019-04-06T22:27:14.664Z,40.53
2019-04-06T22:29:45.458Z,41.80
2019-04-06T22:32:17.462Z,41.47
2019-04-06T22:34:48.821Z,49.93
2019-04-06T22:37:19.585Z,39.67
2019-04-06T22:39:50.331Z,45.17
2019-04-06T22:42:20.966Z,40.90
2019-04-06T22:44:52.160Z,40.70
2019-04-06T22:47:23.569Z,36.27
2019-04-06T22:49:54.627Z,42.40
2019-04-06T22:52:25.222Z,47.33
2019-04-06T22:54:55.929Z,43.40
2019-04-06T22:57:26.735Z,42.17
2019-04-06T22:59:57.397Z,37.10
2019-04-06T23:02:29.622Z,41.73
2019-04-06T23:05:01.859Z,37.87
2019-04-06T23:07:32.658Z,45.80
2019-04-06T23:10:03.246Z,42.70
2019-04-06T23:12:33.948Z,43.27
2019-04-06T23:15:06.453Z,41.13
2019-04-06T23:17:37.109Z,43.50
2019-04-06T23:20:08.326Z,43.23
2019-04-06T23:22:39.014Z,43.20
2019-04-06T23:25:09.714Z,43.93
2019-04-06T23:27:40.491Z,44.90
2019-04-06T23:30:11.166Z,42.13
2019-04-06T23:32:42.279Z,43.83
2019-04-06T23:35:13.145Z,43.10
2019-04-06T23:37:43.834Z,46.07
2019-04-06T23:40:14.556Z,40.83
2019-04-06T23:42:45.929Z,42.77
2019-04-06T23:45:16.553Z,48.60
2019-04-06T23:47:47.076Z,42.77
2019-04-06T23:50:17.878Z,48.03
2019-04-06T23:52:48.529Z,41.60
2019-04-06T23:55:19.103Z,42.67
2019-04-06T23:57:49.868Z,47.17
